Kellersville, North Carolina
Current Conditions -  °F | °C
As of 9:35 PM on Friday 24 Oct 2014 (Local Time) from KTNB Reporting Station
Clear Clear  
Wind Chill: 48°   Ceiling: Unl
Heat Index: 49°   Visibility: 10mi
Dew Point: 36°   Wind: 5mph
Humidity: 59%   Direction: 320°NW
Pressure: 30.08"   Gusts: NA
Location:  36.1797°N, 81.8424°W
Report Text: KTNB 250135Z AUTO 32004KT 10SM CLR 10/02 A3008 RMK AO2 T00970020
Loading
Personal Weather Stations






























Interactive Weather Map
Tropical Storm Tracking
New forecast layout! Learn more

10-Day Weather Forecast

Advertisements
Track Severe Weather on mobile